createdAt,value
2022-09-04T00:01:38.796Z,31.88
2022-09-04T00:04:17.652Z,30.30
2022-09-04T00:07:05.192Z,24.35
2022-09-04T00:09:58.521Z,29.08
2022-09-04T00:12:29.643Z,20.42
2022-09-04T00:15:13.663Z,19.60
2022-09-04T00:18:01.060Z,20.08
2022-09-04T00:20:35.246Z,21.75
2022-09-04T00:23:05.208Z,20.10
2022-09-04T00:25:44.314Z,19.90
2022-09-04T00:28:18.014Z,20.30
2022-09-04T00:30:51.106Z,18.80
2022-09-04T00:33:23.093Z,20.55
2022-09-04T00:35:56.608Z,26.08
2022-09-04T00:38:33.450Z,23.65
2022-09-04T00:41:12.702Z,21.35
2022-09-04T00:43:42.725Z,19.20
2022-09-04T00:46:25.267Z,20.35
2022-09-04T00:49:12.228Z,20.75
2022-09-04T00:56:53.359Z,17.75
2022-09-04T00:59:35.599Z,18.70
2022-09-04T01:02:18.987Z,16.33
2022-09-04T01:04:58.259Z,16.33
2022-09-04T01:07:44.051Z,17.40
2022-09-04T01:10:20.661Z,15.80
2022-09-04T01:27:45.547Z,17.33
2022-09-04T01:30:15.420Z,14.73
2022-09-04T01:42:44.526Z,19.35
2022-09-04T01:45:12.166Z,24.15
2022-09-04T01:47:47.628Z,23.65
2022-09-04T01:50:19.222Z,17.10
2022-09-04T01:55:14.596Z,18.35
2022-09-04T01:57:47.148Z,20.80
2022-09-04T02:00:23.137Z,16.45
2022-09-04T02:02:54.995Z,16.70
2022-09-04T02:05:31.179Z,17.38
2022-09-04T02:08:04.385Z,20.45
2022-09-04T02:10:56.348Z,17.30
2022-09-04T02:13:46.184Z,17.15
2022-09-04T02:16:14.599Z,17.58
2022-09-04T02:18:51.110Z,18.73
2022-09-04T02:21:31.184Z,18.55
2022-09-04T02:24:05.037Z,17.10
2022-09-04T02:26:45.147Z,18.20
2022-09-04T02:29:33.195Z,20.23
2022-09-04T02:32:06.600Z,18.75
2022-09-04T02:34:48.962Z,18.70
2022-09-04T02:37:28.320Z,18.15
2022-09-04T02:39:56.294Z,16.73
2022-09-04T02:42:23.556Z,17.88
2022-09-04T02:44:50.924Z,17.83
2022-09-04T02:47:18.052Z,19.85
2022-09-04T02:50:00.389Z,19.23
2022-09-04T02:52:53.931Z,17.25
2022-09-04T02:55:39.937Z,17.85
2022-09-04T02:58:07.790Z,17.65
2022-09-04T03:00:43.923Z,17.25
2022-09-04T03:03:18.101Z,19.55
2022-09-04T03:06:01.626Z,16.77
2022-09-04T03:08:44.145Z,17.52
2022-09-04T03:11:32.176Z,20.00
2022-09-04T03:14:02.371Z,18.10
2022-09-04T03:16:44.082Z,19.10
2022-09-04T03:19:11.220Z,17.77
2022-09-04T03:21:46.588Z,17.05
2022-09-04T03:24:21.112Z,16.13
2022-09-04T03:27:09.303Z,17.08
2022-09-04T03:29:36.426Z,17.42
2022-09-04T03:32:15.529Z,18.70
2022-09-04T03:34:48.440Z,19.83
2022-09-04T03:37:15.567Z,15.95
2022-09-04T03:39:51.770Z,15.65
2022-09-04T03:42:29.680Z,15.48
2022-09-04T03:45:15.258Z,14.82
2022-09-04T03:47:48.279Z,13.77
2022-09-04T03:50:34.041Z,14.13
2022-09-04T03:53:13.474Z,12.10
2022-09-04T03:55:46.365Z,12.23
2022-09-04T03:58:16.300Z,11.30
2022-09-04T04:01:02.222Z,12.70
2022-09-04T04:03:29.829Z,13.27
2022-09-04T04:05:56.928Z,11.52
2022-09-04T04:08:24.099Z,11.52
2022-09-04T04:10:55.185Z,15.27
2022-09-04T04:13:28.423Z,14.82
2022-09-04T04:16:13.091Z,13.75
2022-09-04T04:18:43.600Z,13.48
2022-09-04T04:21:13.825Z,17.27
2022-09-04T04:23:43.845Z,15.05
2022-09-04T04:26:16.187Z,16.48
2022-09-04T04:28:47.940Z,16.38
2022-09-04T04:31:22.008Z,16.67
2022-09-04T04:33:52.053Z,17.75
2022-09-04T04:36:30.982Z,18.10
2022-09-04T04:38:58.117Z,15.10
2022-09-04T04:42:06.351Z,16.00
2022-09-04T04:44:53.456Z,20.40
2022-09-04T04:47:36.063Z,16.08
2022-09-04T04:50:09.418Z,16.33
2022-09-04T04:52:42.519Z,18.40
2022-09-04T04:55:09.660Z,16.50
2022-09-04T04:57:39.894Z,15.55
2022-09-04T05:00:22.787Z,15.68
2022-09-04T05:02:53.131Z,15.63
2022-09-04T05:05:24.802Z,15.85
2022-09-04T05:08:08.583Z,17.00
2022-09-04T05:10:48.263Z,18.50
2022-09-04T05:13:21.420Z,18.08
2022-09-04T05:16:08.583Z,19.35
2022-09-04T05:18:48.787Z,15.75
2022-09-04T05:21:27.850Z,17.77
2022-09-04T05:24:00.823Z,16.58
2022-09-04T05:26:36.956Z,17.52
2022-09-04T05:29:10.052Z,18.42
2022-09-04T05:31:43.252Z,16.67
2022-09-04T05:34:12.856Z,18.10
2022-09-04T05:36:52.210Z,17.58
2022-09-04T05:39:25.173Z,18.48
2022-09-04T05:41:52.358Z,17.58
2022-09-04T05:44:29.517Z,21.15
2022-09-04T05:47:05.599Z,21.25
2022-09-04T05:49:39.338Z,21.75
2022-09-04T05:52:12.579Z,21.25
2022-09-04T05:54:45.395Z,25.60
2022-09-04T05:57:21.751Z,28.02
2022-09-04T06:00:07.716Z,27.58
2022-09-04T06:02:41.100Z,24.20
2022-09-04T06:05:28.517Z,16.48
2022-09-04T06:08:28.704Z,19.08
2022-09-04T06:10:57.993Z,16.75
2022-09-04T06:13:40.177Z,25.25
2022-09-04T06:16:19.459Z,18.08
2022-09-04T06:18:52.643Z,18.90
2022-09-04T06:21:38.324Z,23.25
2022-09-04T06:24:17.814Z,23.88
2022-09-04T06:27:02.097Z,17.48
2022-09-04T06:29:35.645Z,17.40
2022-09-04T06:32:04.331Z,19.73
2022-09-04T06:34:37.478Z,15.27
2022-09-04T06:37:23.266Z,19.10
2022-09-04T06:39:51.058Z,18.17
2022-09-04T06:42:37.125Z,19.38
2022-09-04T06:45:23.351Z,15.68
2022-09-04T06:47:50.805Z,18.73
2022-09-04T06:50:17.987Z,16.45
2022-09-04T06:52:56.269Z,13.55
2022-09-04T06:55:45.630Z,18.92
2022-09-04T06:58:12.788Z,14.82
2022-09-04T07:00:46.264Z,15.82
2022-09-04T07:03:19.508Z,15.38
2022-09-04T07:06:05.180Z,15.07
2022-09-04T07:08:58.784Z,17.25
2022-09-04T07:11:44.346Z,14.10
2022-09-04T07:14:17.434Z,16.02
2022-09-04T07:16:44.674Z,16.20
2022-09-04T07:19:25.587Z,14.77
2022-09-04T07:22:05.134Z,13.93
2022-09-04T07:24:38.659Z,13.35
2022-09-04T07:27:18.277Z,13.27
2022-09-04T07:29:55.608Z,12.55
2022-09-04T07:32:25.756Z,11.98
2022-09-04T07:35:01.840Z,13.40
2022-09-04T07:37:58.551Z,12.75
2022-09-04T07:40:27.912Z,12.30
2022-09-04T07:42:57.944Z,10.40
2022-09-04T07:45:35.309Z,11.10
2022-09-04T07:48:11.339Z,10.15
2022-09-04T07:51:10.621Z,11.52
2022-09-04T07:53:56.722Z,11.57
2022-09-04T07:56:42.968Z,11.23
2022-09-04T07:59:15.822Z,11.60
2022-09-04T08:01:49.106Z,11.45
2022-09-04T08:04:38.162Z,13.90
2022-09-04T08:07:11.352Z,11.75
2022-09-04T08:09:38.736Z,13.50
2022-09-04T08:12:25.678Z,15.13
2022-09-04T08:14:55.710Z,12.80
2022-09-04T08:17:37.106Z,12.60
2022-09-04T08:20:24.521Z,10.48
2022-09-04T08:22:56.013Z,9.57
2022-09-04T08:25:28.715Z,10.73
2022-09-04T08:28:33.249Z,12.13
2022-09-04T08:31:03.759Z,9.90
2022-09-04T08:33:30.995Z,12.45
2022-09-04T08:36:03.044Z,11.35
2022-09-04T08:38:32.955Z,10.20
2022-09-04T08:41:00.079Z,9.40
2022-09-04T08:43:36.431Z,10.50
2022-09-04T08:46:03.591Z,10.60
2022-09-04T08:48:49.645Z,10.10
2022-09-04T08:51:29.598Z,8.63
2022-09-04T08:54:05.798Z,10.07
2022-09-04T08:56:36.276Z,8.70
2022-09-04T08:59:03.456Z,11.10
2022-09-04T09:01:49.619Z,9.93
2022-09-04T09:04:16.884Z,9.02
2022-09-04T09:07:02.658Z,10.48
2022-09-04T09:09:45.164Z,9.30
2022-09-04T09:12:24.438Z,9.45
2022-09-04T09:15:00.869Z,11.00
2022-09-04T09:17:34.276Z,10.65
2022-09-04T09:20:05.120Z,11.70
2022-09-04T09:22:40.946Z,10.98
2022-09-04T09:25:08.155Z,9.70
2022-09-04T09:27:47.416Z,9.90
2022-09-04T09:30:19.107Z,11.05
2022-09-04T09:32:50.292Z,11.67
2022-09-04T09:35:23.522Z,8.07
2022-09-04T09:38:04.157Z,10.25
2022-09-04T09:50:34.234Z,9.32
2022-09-04T09:53:22.323Z,10.07
2022-09-04T09:55:49.438Z,11.40
2022-09-04T09:58:31.689Z,8.55
2022-09-04T10:01:06.388Z,8.15
2022-09-04T10:03:54.629Z,8.10
2022-09-04T10:06:40.595Z,7.25
2022-09-04T10:09:09.527Z,9.27
2022-09-04T10:11:39.619Z,7.93
2022-09-04T10:14:45.097Z,9.05
2022-09-04T10:17:14.782Z,8.05
2022-09-04T10:19:46.383Z,7.78
2022-09-04T10:22:39.853Z,8.00
2022-09-04T10:25:06.984Z,10.60
2022-09-04T10:27:46.638Z,8.70
2022-09-04T10:30:19.333Z,7.25
2022-09-04T10:32:58.683Z,8.27
2022-09-04T10:35:28.255Z,8.35
2022-09-04T10:38:04.262Z,8.50
2022-09-04T10:40:51.533Z,9.55
2022-09-04T10:43:37.044Z,8.38
2022-09-04T10:46:13.834Z,7.65
2022-09-04T10:49:10.961Z,8.57
2022-09-04T10:51:50.511Z,7.00
2022-09-04T10:54:26.856Z,7.82
2022-09-04T10:57:03.731Z,7.20
2022-09-04T10:59:31.040Z,9.48
2022-09-04T11:02:13.609Z,8.55
2022-09-04T11:07:15.117Z,7.13
2022-09-04T11:09:45.027Z,7.50
2022-09-04T11:12:12.436Z,7.60
2022-09-04T11:14:43.314Z,7.25
2022-09-04T11:17:28.457Z,5.53
2022-09-04T11:20:21.356Z,6.50
2022-09-04T11:25:21.727Z,5.60
2022-09-04T11:28:09.113Z,4.57
2022-09-04T11:30:39.325Z,4.22
2022-09-04T11:33:32.692Z,3.08
2022-09-04T11:36:18.847Z,2.65
2022-09-04T11:39:14.914Z,2.20
2022-09-04T11:41:44.845Z,2.42
2022-09-04T11:44:17.900Z,2.20
2022-09-04T11:46:47.083Z,2.55
2022-09-04T11:49:14.177Z,2.45
2022-09-04T11:52:00.235Z,3.10
2022-09-04T11:54:27.386Z,2.72
2022-09-04T11:56:54.503Z,2.40
2022-09-04T11:59:40.300Z,2.60
2022-09-04T12:02:07.572Z,3.00
2022-09-04T12:04:40.154Z,2.40
2022-09-04T12:10:01.762Z,1.90
2022-09-04T12:12:34.970Z,1.83
2022-09-04T12:15:11.047Z,2.20
2022-09-04T12:17:57.883Z,2.13
2022-09-04T12:20:31.480Z,2.42
2022-09-04T12:23:17.372Z,2.15
2022-09-04T12:25:50.992Z,2.25
2022-09-04T12:28:27.341Z,2.42
2022-09-04T12:31:01.029Z,1.90
2022-09-04T12:33:47.149Z,1.85
2022-09-04T12:36:24.992Z,2.20
2022-09-04T12:39:03.541Z,1.63
2022-09-04T12:41:30.693Z,1.58
2022-09-04T12:44:11.864Z,1.63
2022-09-04T12:46:48.698Z,1.58
2022-09-04T12:49:28.186Z,1.60
2022-09-04T12:52:01.212Z,1.83
2022-09-04T12:54:29.160Z,1.52
2022-09-04T12:57:15.151Z,1.35
2022-09-04T12:59:42.656Z,1.50
2022-09-04T13:02:09.920Z,1.52
2022-09-04T13:04:38.713Z,1.48
2022-09-04T13:07:15.961Z,1.45
2022-09-04T13:10:02.187Z,1.60
2022-09-04T13:12:48.126Z,1.58
2022-09-04T13:15:19.436Z,1.73
2022-09-04T13:17:51.153Z,1.30
2022-09-04T13:20:22.618Z,1.73
2022-09-04T13:23:16.052Z,1.40
2022-09-04T13:25:55.055Z,1.40
2022-09-04T13:28:38.301Z,1.70
2022-09-04T13:31:14.457Z,1.48
2022-09-04T13:33:53.200Z,2.20
2022-09-04T13:36:42.444Z,1.52
2022-09-04T13:39:10.647Z,1.30
2022-09-04T13:41:37.768Z,1.42
2022-09-04T13:44:14.182Z,1.48
2022-09-04T13:46:50.402Z,1.45
2022-09-04T13:49:19.127Z,1.45
2022-09-04T13:51:49.136Z,1.40
2022-09-04T13:54:16.218Z,1.45
2022-09-04T13:59:58.201Z,1.35
2022-09-04T14:02:27.365Z,1.45
2022-09-04T14:04:56.929Z,1.40
2022-09-04T14:07:44.118Z,1.58
2022-09-04T14:10:21.163Z,1.40
2022-09-04T14:12:56.132Z,1.30
2022-09-04T14:15:34.635Z,2.03
2022-09-04T14:20:58.153Z,1.45
2022-09-04T14:23:28.580Z,1.48
2022-09-04T14:26:08.670Z,1.23
2022-09-04T14:28:59.190Z,1.48
2022-09-04T14:31:38.385Z,1.20
2022-09-04T14:34:20.374Z,1.45
2022-09-04T14:37:08.109Z,1.52
2022-09-04T14:39:45.618Z,1.33
2022-09-04T14:42:31.886Z,1.20
2022-09-04T14:45:02.586Z,1.17
2022-09-04T14:47:44.384Z,1.20
2022-09-04T14:50:13.397Z,1.40
2022-09-04T14:52:43.348Z,1.40
2022-09-04T14:55:38.777Z,1.58
2022-09-04T14:58:11.482Z,1.08
2022-09-04T15:00:59.029Z,1.13
2022-09-04T15:03:33.807Z,1.15
2022-09-04T15:06:16.326Z,1.50
2022-09-04T15:08:44.925Z,1.42
2022-09-04T15:11:34.162Z,1.35
2022-09-04T15:14:26.307Z,1.42
2022-09-04T15:16:56.904Z,1.20
2022-09-04T15:19:44.268Z,1.30
2022-09-04T15:22:20.999Z,1.45
2022-09-04T15:24:55.585Z,1.40
2022-09-04T15:27:34.952Z,1.30
2022-09-04T15:30:06.568Z,1.52
2022-09-04T15:32:40.562Z,1.40
2022-09-04T15:35:21.373Z,1.30
2022-09-04T15:37:50.305Z,1.30
2022-09-04T15:40:32.672Z,1.55
2022-09-04T15:43:18.167Z,1.40
2022-09-04T15:45:57.567Z,1.35
2022-09-04T15:48:43.793Z,1.58
2022-09-04T15:51:11.362Z,1.48
2022-09-04T15:53:40.978Z,1.15
2022-09-04T15:56:17.328Z,1.23
2022-09-04T15:58:47.414Z,1.60
2022-09-04T16:01:22.101Z,1.23
2022-09-04T16:04:23.242Z,1.48
2022-09-04T16:06:54.470Z,1.38
2022-09-04T16:09:27.751Z,1.35
2022-09-04T16:11:59.735Z,1.17
2022-09-04T16:14:44.411Z,1.05
2022-09-04T16:17:14.735Z,1.17
2022-09-04T16:19:57.815Z,1.10
2022-09-04T16:22:58.397Z,1.33
2022-09-04T16:25:29.053Z,1.40
2022-09-04T16:28:15.199Z,1.50
2022-09-04T16:30:47.011Z,1.33
2022-09-04T16:33:27.701Z,1.15
2022-09-04T16:36:07.783Z,1.20
2022-09-04T16:38:57.480Z,1.30
2022-09-04T16:41:29.046Z,1.20
2022-09-04T16:44:26.463Z,1.38
2022-09-04T16:47:02.765Z,1.35
2022-09-04T16:49:29.938Z,2.00
2022-09-04T16:51:59.695Z,5.03
2022-09-04T16:54:37.247Z,3.28
2022-09-04T16:57:12.232Z,1.70
2022-09-04T17:00:10.075Z,1.70
2022-09-04T17:02:44.594Z,1.90
2022-09-04T17:05:17.463Z,1.90
2022-09-04T17:07:50.087Z,1.80
2022-09-04T17:10:20.479Z,1.70
2022-09-04T17:12:56.962Z,1.83
2022-09-04T17:15:53.417Z,1.98
2022-09-04T17:18:23.407Z,1.88
2022-09-04T17:24:03.143Z,1.85
2022-09-04T17:29:01.820Z,1.77
2022-09-04T17:29:15.596Z,2.22
2022-09-04T17:29:44.429Z,1.90
2022-09-04T17:32:38.304Z,1.90
2022-09-04T17:40:44.216Z,1.85
2022-09-04T17:40:49.878Z,1.60
2022-09-04T17:41:52.735Z,2.30
2022-09-04T17:44:39.515Z,2.03
2022-09-04T17:47:09.833Z,1.85
2022-09-04T17:49:41.345Z,1.80
2022-09-04T17:52:09.034Z,2.33
2022-09-04T17:54:48.861Z,2.38
2022-09-04T17:57:36.949Z,1.75
2022-09-04T18:00:11.695Z,2.15
2022-09-04T18:02:39.051Z,2.42
2022-09-04T18:05:21.746Z,2.53
2022-09-04T18:08:09.447Z,2.17
2022-09-04T18:10:40.379Z,4.43
2022-09-04T18:13:36.755Z,3.47
2022-09-04T18:16:09.265Z,3.17
2022-09-04T18:18:39.684Z,2.85
2022-09-04T18:21:15.979Z,2.50
2022-09-04T18:23:52.581Z,2.95
2022-09-04T18:26:22.881Z,3.10
2022-09-04T18:28:52.065Z,2.58
2022-09-04T18:37:05.914Z,2.47
2022-09-04T18:37:17.429Z,2.67
2022-09-04T18:37:44.068Z,3.10
2022-09-04T18:40:45.007Z,2.50
2022-09-04T18:50:28.627Z,2.88
2022-09-04T18:50:30.523Z,3.00
2022-09-04T18:50:34.460Z,2.40
2022-09-04T18:52:00.962Z,2.95
2022-09-04T18:54:42.263Z,2.60
2022-09-04T18:57:24.437Z,2.85
2022-09-04T19:00:06.801Z,3.00
2022-09-04T19:02:42.076Z,3.22
2022-09-04T19:05:16.087Z,2.65
2022-09-04T19:07:54.886Z,3.78
2022-09-04T19:10:32.285Z,3.60
2022-09-04T19:13:10.590Z,2.80
2022-09-04T19:15:50.021Z,2.50
2022-09-04T19:18:21.877Z,2.42
2022-09-04T19:20:51.189Z,2.67
2022-09-04T19:23:26.741Z,2.88
2022-09-04T19:25:55.284Z,2.92
2022-09-04T19:28:26.184Z,3.55
2022-09-04T19:30:55.646Z,3.17
2022-09-04T19:33:39.038Z,3.42
2022-09-04T19:36:09.338Z,3.30
2022-09-04T19:45:56.197Z,3.50
2022-09-04T19:45:56.433Z,3.40
2022-09-04T19:46:06.471Z,3.65
2022-09-04T19:47:29.095Z,4.10
2022-09-04T19:53:23.334Z,3.67
2022-09-04T19:53:33.440Z,3.50
2022-09-04T19:55:48.637Z,3.08
2022-09-04T19:58:18.611Z,3.40
2022-09-04T20:00:49.145Z,4.00
2022-09-04T20:03:29.243Z,3.60
2022-09-04T20:06:09.291Z,3.40
2022-09-04T20:08:59.265Z,3.22
2022-09-04T20:11:35.954Z,3.40
2022-09-04T20:14:14.335Z,3.58
2022-09-04T20:16:57.604Z,3.28
2022-09-04T20:21:55.454Z,3.88
2022-09-04T20:24:25.222Z,4.05
2022-09-04T20:27:01.728Z,4.82
2022-09-04T20:29:41.293Z,3.90
2022-09-04T20:32:31.914Z,4.70
2022-09-04T20:35:13.740Z,4.72
2022-09-04T20:37:53.959Z,5.00
2022-09-04T20:40:30.339Z,5.47
2022-09-04T20:43:03.887Z,6.15
2022-09-04T20:48:47.090Z,4.93
2022-09-04T20:52:54.893Z,5.63
2022-09-04T20:52:56.431Z,5.25
2022-09-04T20:54:11.697Z,5.93
2022-09-04T20:57:25.685Z,5.05
2022-09-04T21:03:12.922Z,5.88
2022-09-04T21:03:15.216Z,4.72
2022-09-04T21:05:17.239Z,4.85
2022-09-04T21:07:54.924Z,5.10
2022-09-04T21:10:34.284Z,5.18
2022-09-04T21:13:12.303Z,5.30
2022-09-04T21:15:54.114Z,4.88
2022-09-04T21:18:45.018Z,5.43
2022-09-04T21:24:03.238Z,5.55
2022-09-04T21:26:50.211Z,5.35
2022-09-04T21:29:17.407Z,5.65
2022-09-04T21:31:46.176Z,5.32
2022-09-04T21:34:21.142Z,5.07
2022-09-04T21:36:59.441Z,5.90
2022-09-04T21:39:32.872Z,6.00
2022-09-04T21:42:12.732Z,6.40
2022-09-04T21:44:44.167Z,5.72
2022-09-04T21:47:16.088Z,5.97
2022-09-04T21:49:59.579Z,6.28
2022-09-04T21:52:33.051Z,6.63
2022-09-04T21:58:19.894Z,6.97
2022-09-04T22:02:27.019Z,6.40
2022-09-04T22:02:46.082Z,6.00
2022-09-04T22:04:04.412Z,6.72
2022-09-04T22:10:01.894Z,7.32
2022-09-04T22:13:34.477Z,6.55
2022-09-04T22:13:43.095Z,6.78
2022-09-04T22:15:49.290Z,6.47
2022-09-04T22:18:31.643Z,6.88
2022-09-04T22:21:04.639Z,6.78
2022-09-04T22:23:31.947Z,6.05
2022-09-04T22:26:24.140Z,6.07
2022-09-04T22:28:57.935Z,6.20
2022-09-04T22:31:29.255Z,6.60
2022-09-04T22:34:21.034Z,6.63
2022-09-04T22:37:00.475Z,6.57
2022-09-04T22:39:46.645Z,6.10
2022-09-04T22:42:37.266Z,6.38
2022-09-04T22:45:23.459Z,6.93
2022-09-04T22:48:10.665Z,5.75
2022-09-04T22:50:49.351Z,5.60
2022-09-04T22:53:27.402Z,6.40
2022-09-04T22:56:23.356Z,5.93
2022-09-04T22:59:26.516Z,6.25
2022-09-04T23:02:04.654Z,6.13
2022-09-04T23:04:50.664Z,6.00
2022-09-04T23:10:21.591Z,6.30
2022-09-04T23:13:51.048Z,7.40
2022-09-04T23:13:59.659Z,6.72
2022-09-04T23:16:14.884Z,6.75
2022-09-04T23:24:50.456Z,6.78
2022-09-04T23:26:42.858Z,6.75
2022-09-04T23:26:53.124Z,6.35
2022-09-04T23:27:28.854Z,7.00
2022-09-04T23:30:10.364Z,7.07
2022-09-04T23:32:57.967Z,6.57
2022-09-04T23:35:34.259Z,6.85
2022-09-04T23:38:04.506Z,6.55
2022-09-04T23:40:39.143Z,6.20
2022-09-04T23:43:21.741Z,7.30
2022-09-04T23:46:01.666Z,5.88
2022-09-04T23:48:32.433Z,6.85
2022-09-04T23:51:11.871Z,7.45
2022-09-04T23:53:57.648Z,5.72
2022-09-04T23:56:39.031Z,6.82
2022-09-04T23:59:24.758Z,6.55
